sensor_id;sensor_type;location;lat;lon;timestamp;P1;durP1;ratioP1;P2;durP2;ratioP2
62475;SDS011;50739;45.670;11.936;2023-06-22T00:03:57;11.90;;;10.00;;
62475;SDS011;50739;45.670;11.936;2023-06-22T00:08:59;11.30;;;9.38;;
62475;SDS011;50739;45.670;11.936;2023-06-22T00:14:02;13.82;;;10.00;;
62475;SDS011;50739;45.670;11.936;2023-06-22T00:19:06;11.20;;;10.00;;
62475;SDS011;50739;45.670;11.936;2023-06-22T00:24:08;13.02;;;9.38;;
62475;SDS011;50739;45.670;11.936;2023-06-22T00:29:10;12.88;;;10.25;;
62475;SDS011;50739;45.670;11.936;2023-06-22T00:34:14;12.27;;;9.88;;
62475;SDS011;50739;45.670;11.936;2023-06-22T00:39:17;14.80;;;10.63;;
62475;SDS011;50739;45.670;11.936;2023-06-22T00:44:20;13.47;;;10.47;;
62475;SDS011;50739;45.670;11.936;2023-06-22T00:49:23;13.77;;;10.77;;
62475;SDS011;50739;45.670;11.936;2023-06-22T00:54:26;13.77;;;10.65;;
62475;SDS011;50739;45.670;11.936;2023-06-22T00:59:29;11.93;;;10.52;;
62475;SDS011;50739;45.670;11.936;2023-06-22T01:04:35;13.18;;;10.75;;
62475;SDS011;50739;45.670;11.936;2023-06-22T01:09:40;14.50;;;10.98;;
62475;SDS011;50739;45.670;11.936;2023-06-22T01:14:53;15.38;;;10.90;;
62475;SDS011;50739;45.670;11.936;2023-06-22T01:20:01;15.25;;;11.48;;
62475;SDS011;50739;45.670;11.936;2023-06-22T01:25:07;15.38;;;12.32;;
62475;SDS011;50739;45.670;11.936;2023-06-22T01:30:14;14.57;;;12.20;;
62475;SDS011;50739;45.670;11.936;2023-06-22T01:35:19;14.30;;;12.60;;
62475;SDS011;50739;45.670;11.936;2023-06-22T01:40:23;16.03;;;12.90;;
62475;SDS011;50739;45.670;11.936;2023-06-22T01:45:27;16.20;;;11.90;;
62475;SDS011;50739;45.670;11.936;2023-06-22T01:50:30;14.98;;;12.23;;
62475;SDS011;50739;45.670;11.936;2023-06-22T01:55:32;14.02;;;11.73;;
62475;SDS011;50739;45.670;11.936;2023-06-22T02:00:36;15.37;;;11.90;;
62475;SDS011;50739;45.670;11.936;2023-06-22T02:05:42;12.10;;;10.52;;
62475;SDS011;50739;45.670;11.936;2023-06-22T02:10:50;15.60;;;11.30;;
62475;SDS011;50739;45.670;11.936;2023-06-22T02:15:55;16.17;;;12.20;;
62475;SDS011;50739;45.670;11.936;2023-06-22T02:20:58;14.20;;;11.90;;
62475;SDS011;50739;45.670;11.936;2023-06-22T02:26:01;17.30;;;13.77;;
62475;SDS011;50739;45.670;11.936;2023-06-22T02:31:05;17.48;;;14.73;;
62475;SDS011;50739;45.670;11.936;2023-06-22T02:36:07;23.10;;;18.13;;
62475;SDS011;50739;45.670;11.936;2023-06-22T02:41:10;24.33;;;20.00;;
62475;SDS011;50739;45.670;11.936;2023-06-22T02:46:15;28.20;;;21.05;;
62475;SDS011;50739;45.670;11.936;2023-06-22T02:51:17;27.98;;;20.88;;
62475;SDS011;50739;45.670;11.936;2023-06-22T02:56:20;25.10;;;20.17;;
62475;SDS011;50739;45.670;11.936;2023-06-22T03:01:26;25.83;;;20.02;;
62475;SDS011;50739;45.670;11.936;2023-06-22T03:06:30;28.27;;;20.77;;
62475;SDS011;50739;45.670;11.936;2023-06-22T03:11:33;25.30;;;20.63;;
62475;SDS011;50739;45.670;11.936;2023-06-22T03:16:37;25.43;;;20.93;;
62475;SDS011;50739;45.670;11.936;2023-06-22T03:21:41;25.75;;;19.95;;
62475;SDS011;50739;45.670;11.936;2023-06-22T03:26:43;26.70;;;20.90;;
62475;SDS011;50739;45.670;11.936;2023-06-22T03:31:48;25.83;;;20.60;;
62475;SDS011;50739;45.670;11.936;2023-06-22T03:36:51;25.63;;;20.85;;
62475;SDS011;50739;45.670;11.936;2023-06-22T03:41:53;27.88;;;20.23;;
62475;SDS011;50739;45.670;11.936;2023-06-22T03:46:57;26.40;;;20.92;;
62475;SDS011;50739;45.670;11.936;2023-06-22T03:52:01;28.10;;;21.07;;
62475;SDS011;50739;45.670;11.936;2023-06-22T03:57:04;29.35;;;21.52;;
62475;SDS011;50739;45.670;11.936;2023-06-22T04:02:08;31.07;;;22.23;;
62475;SDS011;50739;45.670;11.936;2023-06-22T04:07:10;29.23;;;21.48;;
62475;SDS011;50739;45.670;11.936;2023-06-22T04:12:13;28.77;;;22.15;;
62475;SDS011;50739;45.670;11.936;2023-06-22T04:17:16;28.00;;;20.73;;
62475;SDS011;50739;45.670;11.936;2023-06-22T04:22:20;28.53;;;21.47;;
62475;SDS011;50739;45.670;11.936;2023-06-22T04:27:22;26.17;;;20.85;;
62475;SDS011;50739;45.670;11.936;2023-06-22T04:32:26;26.00;;;20.10;;
62475;SDS011;50739;45.670;11.936;2023-06-22T04:37:28;24.60;;;20.20;;
62475;SDS011;50739;45.670;11.936;2023-06-22T04:42:30;24.90;;;20.15;;
62475;SDS011;50739;45.670;11.936;2023-06-22T04:47:34;25.75;;;20.00;;
62475;SDS011;50739;45.670;11.936;2023-06-22T04:52:40;24.48;;;20.25;;
62475;SDS011;50739;45.670;11.936;2023-06-22T04:57:42;25.88;;;19.73;;
62475;SDS011;50739;45.670;11.936;2023-06-22T05:02:50;29.17;;;20.38;;
62475;SDS011;50739;45.670;11.936;2023-06-22T05:07:53;26.50;;;20.13;;
62475;SDS011;50739;45.670;11.936;2023-06-22T05:13:00;27.15;;;21.35;;
62475;SDS011;50739;45.670;11.936;2023-06-22T05:18:04;27.38;;;20.48;;
62475;SDS011;50739;45.670;11.936;2023-06-22T05:23:06;27.55;;;20.15;;
62475;SDS011;50739;45.670;11.936;2023-06-22T05:28:09;31.83;;;20.30;;
62475;SDS011;50739;45.670;11.936;2023-06-22T05:33:13;24.57;;;18.57;;
62475;SDS011;50739;45.670;11.936;2023-06-22T05:38:15;28.30;;;17.83;;
62475;SDS011;50739;45.670;11.936;2023-06-22T05:43:17;22.63;;;16.05;;
62475;SDS011;50739;45.670;11.936;2023-06-22T05:48:21;16.37;;;12.73;;
62475;SDS011;50739;45.670;11.936;2023-06-22T05:53:23;17.50;;;11.88;;
62475;SDS011;50739;45.670;11.936;2023-06-22T05:58:26;19.27;;;13.20;;
62475;SDS011;50739;45.670;11.936;2023-06-22T06:03:29;14.52;;;10.20;;
62475;SDS011;50739;45.670;11.936;2023-06-22T06:08:32;15.77;;;10.40;;
62475;SDS011;50739;45.670;11.936;2023-06-22T06:13:34;11.93;;;10.30;;
62475;SDS011;50739;45.670;11.936;2023-06-22T06:18:38;13.60;;;10.57;;
62475;SDS011;50739;45.670;11.936;2023-06-22T06:23:40;11.65;;;8.52;;
62475;SDS011;50739;45.670;11.936;2023-06-22T06:28:43;16.25;;;11.55;;
62475;SDS011;50739;45.670;11.936;2023-06-22T06:33:47;15.93;;;10.30;;
62475;SDS011;50739;45.670;11.936;2023-06-22T06:38:49;8.00;;;7.20;;
62475;SDS011;50739;45.670;11.936;2023-06-22T06:43:51;10.15;;;7.30;;
62475;SDS011;50739;45.670;11.936;2023-06-22T06:48:55;11.35;;;6.95;;
62475;SDS011;50739;45.670;11.936;2023-06-22T06:53:57;8.97;;;7.80;;
62475;SDS011;50739;45.670;11.936;2023-06-22T06:59:00;10.10;;;8.30;;
62475;SDS011;50739;45.670;11.936;2023-06-22T07:04:04;9.30;;;7.70;;
62475;SDS011;50739;45.670;11.936;2023-06-22T07:09:06;15.52;;;8.18;;
62475;SDS011;50739;45.670;11.936;2023-06-22T07:14:09;9.23;;;8.18;;
62475;SDS011;50739;45.670;11.936;2023-06-22T07:19:12;10.68;;;8.30;;
62475;SDS011;50739;45.670;11.936;2023-06-22T07:24:15;13.07;;;8.90;;
62475;SDS011;50739;45.670;11.936;2023-06-22T07:29:17;13.80;;;9.30;;
62475;SDS011;50739;45.670;11.936;2023-06-22T07:34:22;14.45;;;9.95;;
62475;SDS011;50739;45.670;11.936;2023-06-22T07:39:24;12.55;;;10.57;;
62475;SDS011;50739;45.670;11.936;2023-06-22T07:44:27;14.53;;;10.30;;
62475;SDS011;50739;45.670;11.936;2023-06-22T07:49:31;14.83;;;10.70;;
62475;SDS011;50739;45.670;11.936;2023-06-22T07:54:33;14.50;;;10.75;;
62475;SDS011;50739;45.670;11.936;2023-06-22T07:59:36;11.38;;;10.13;;
62475;SDS011;50739;45.670;11.936;2023-06-22T08:04:40;13.30;;;11.13;;
62475;SDS011;50739;45.670;11.936;2023-06-22T08:09:45;14.52;;;11.60;;
62475;SDS011;50739;45.670;11.936;2023-06-22T08:14:49;15.30;;;11.07;;
62475;SDS011;50739;45.670;11.936;2023-06-22T08:19:52;16.25;;;12.90;;
62475;SDS011;50739;45.670;11.936;2023-06-22T08:24:55;16.42;;;13.30;;
62475;SDS011;50739;45.670;11.936;2023-06-22T08:29:57;18.77;;;13.93;;
62475;SDS011;50739;45.670;11.936;2023-06-22T08:35:01;78.90;;;21.23;;
62475;SDS011;50739;45.670;11.936;2023-06-22T08:40:03;15.35;;;12.25;;
62475;SDS011;50739;45.670;11.936;2023-06-22T08:45:09;15.35;;;11.95;;
62475;SDS011;50739;45.670;11.936;2023-06-22T08:50:13;15.60;;;11.65;;
62475;SDS011;50739;45.670;11.936;2023-06-22T08:55:16;15.57;;;10.88;;
62475;SDS011;50739;45.670;11.936;2023-06-22T09:00:18;13.52;;;9.90;;
62475;SDS011;50739;45.670;11.936;2023-06-22T09:05:23;11.48;;;8.73;;
62475;SDS011;50739;45.670;11.936;2023-06-22T09:10:26;11.88;;;8.32;;
62475;SDS011;50739;45.670;11.936;2023-06-22T09:15:28;10.43;;;8.10;;
62475;SDS011;50739;45.670;11.936;2023-06-22T09:20:32;10.88;;;7.32;;
62475;SDS011;50739;45.670;11.936;2023-06-22T09:25:34;11.23;;;8.27;;
62475;SDS011;50739;45.670;11.936;2023-06-22T09:30:37;9.63;;;7.13;;
62475;SDS011;50739;45.670;11.936;2023-06-22T09:35:40;10.67;;;7.30;;
62475;SDS011;50739;45.670;11.936;2023-06-22T09:40:43;11.52;;;7.40;;
62475;SDS011;50739;45.670;11.936;2023-06-22T09:45:45;10.27;;;6.73;;
62475;SDS011;50739;45.670;11.936;2023-06-22T09:50:49;10.20;;;7.33;;
62475;SDS011;50739;45.670;11.936;2023-06-22T09:55:51;13.38;;;7.70;;
62475;SDS011;50739;45.670;11.936;2023-06-22T10:00:53;9.98;;;6.90;;
62475;SDS011;50739;45.670;11.936;2023-06-22T10:05:57;10.38;;;6.85;;
62475;SDS011;50739;45.670;11.936;2023-06-22T10:10:59;11.70;;;7.13;;
62475;SDS011;50739;45.670;11.936;2023-06-22T10:16:02;10.10;;;6.95;;
62475;SDS011;50739;45.670;11.936;2023-06-22T10:21:06;10.17;;;6.40;;
62475;SDS011;50739;45.670;11.936;2023-06-22T10:26:08;12.40;;;6.70;;
62475;SDS011;50739;45.670;11.936;2023-06-22T10:31:10;12.70;;;6.63;;
62475;SDS011;50739;45.670;11.936;2023-06-22T10:36:14;8.40;;;6.40;;
62475;SDS011;50739;45.670;11.936;2023-06-22T10:41:16;9.63;;;6.87;;
62475;SDS011;50739;45.670;11.936;2023-06-22T10:46:19;9.63;;;7.30;;
62475;SDS011;50739;45.670;11.936;2023-06-22T10:51:22;11.68;;;7.20;;
62475;SDS011;50739;45.670;11.936;2023-06-22T10:56:25;10.63;;;7.73;;
62475;SDS011;50739;45.670;11.936;2023-06-22T11:01:27;8.18;;;7.05;;
62475;SDS011;50739;45.670;11.936;2023-06-22T11:06:33;11.00;;;7.28;;
62475;SDS011;50739;45.670;11.936;2023-06-22T11:11:35;11.95;;;7.30;;
62475;SDS011;50739;45.670;11.936;2023-06-22T11:16:38;10.57;;;7.50;;
62475;SDS011;50739;45.670;11.936;2023-06-22T11:21:41;9.18;;;6.95;;
62475;SDS011;50739;45.670;11.936;2023-06-22T11:26:44;11.02;;;7.18;;
62475;SDS011;50739;45.670;11.936;2023-06-22T11:31:46;12.35;;;7.00;;
62475;SDS011;50739;45.670;11.936;2023-06-22T11:36:49;8.85;;;6.95;;
62475;SDS011;50739;45.670;11.936;2023-06-22T11:41:52;10.98;;;6.03;;
62475;SDS011;50739;45.670;11.936;2023-06-22T11:46:54;10.70;;;6.38;;
62475;SDS011;50739;45.670;11.936;2023-06-22T11:51:58;8.87;;;6.53;;
62475;SDS011;50739;45.670;11.936;2023-06-22T11:57:00;10.50;;;6.63;;
62475;SDS011;50739;45.670;11.936;2023-06-22T12:02:03;11.43;;;7.38;;
62475;SDS011;50739;45.670;11.936;2023-06-22T12:07:09;12.88;;;7.25;;
62475;SDS011;50739;45.670;11.936;2023-06-22T12:12:11;9.18;;;7.25;;
62475;SDS011;50739;45.670;11.936;2023-06-22T12:17:13;9.53;;;7.00;;
62475;SDS011;50739;45.670;11.936;2023-06-22T12:22:17;8.73;;;7.43;;
62475;SDS011;50739;45.670;11.936;2023-06-22T12:27:19;8.27;;;6.70;;
62475;SDS011;50739;45.670;11.936;2023-06-22T12:32:22;10.63;;;7.15;;
62475;SDS011;50739;45.670;11.936;2023-06-22T12:37:26;9.75;;;8.02;;
62475;SDS011;50739;45.670;11.936;2023-06-22T12:42:28;9.68;;;7.90;;
62475;SDS011;50739;45.670;11.936;2023-06-22T12:47:30;9.55;;;8.55;;
62475;SDS011;50739;45.670;11.936;2023-06-22T12:52:35;11.23;;;8.80;;
62475;SDS011;50739;45.670;11.936;2023-06-22T12:57:39;11.93;;;8.17;;
62475;SDS011;50739;45.670;11.936;2023-06-22T13:02:41;10.32;;;8.50;;
62475;SDS011;50739;45.670;11.936;2023-06-22T13:07:45;10.93;;;8.32;;
62475;SDS011;50739;45.670;11.936;2023-06-22T13:12:47;12.52;;;8.52;;
62475;SDS011;50739;45.670;11.936;2023-06-22T13:17:50;12.20;;;8.60;;
62475;SDS011;50739;45.670;11.936;2023-06-22T13:22:54;11.87;;;8.87;;
62475;SDS011;50739;45.670;11.936;2023-06-22T13:27:57;15.23;;;8.27;;
62475;SDS011;50739;45.670;11.936;2023-06-22T13:32:59;9.95;;;8.32;;
62475;SDS011;50739;45.670;11.936;2023-06-22T13:38:03;9.60;;;8.20;;
62475;SDS011;50739;45.670;11.936;2023-06-22T13:43:05;10.52;;;7.90;;
62475;SDS011;50739;45.670;11.936;2023-06-22T13:48:08;11.17;;;8.60;;
62475;SDS011;50739;45.670;11.936;2023-06-22T13:53:12;10.57;;;8.27;;
62475;SDS011;50739;45.670;11.936;2023-06-22T13:58:14;16.83;;;8.47;;
62475;SDS011;50739;45.670;11.936;2023-06-22T14:03:17;27.38;;;8.00;;
62475;SDS011;50739;45.670;11.936;2023-06-22T14:08:20;10.03;;;7.30;;
62475;SDS011;50739;45.670;11.936;2023-06-22T14:13:24;8.77;;;7.75;;
62475;SDS011;50739;45.670;11.936;2023-06-22T14:18:26;8.57;;;7.25;;
62475;SDS011;50739;45.670;11.936;2023-06-22T14:23:30;10.00;;;6.72;;
62475;SDS011;50739;45.670;11.936;2023-06-22T14:28:32;11.15;;;6.80;;
62475;SDS011;50739;45.670;11.936;2023-06-22T14:33:34;9.33;;;6.83;;
62475;SDS011;50739;45.670;11.936;2023-06-22T14:38:38;13.60;;;7.53;;
62475;SDS011;50739;45.670;11.936;2023-06-22T14:43:43;9.35;;;5.93;;
62475;SDS011;50739;45.670;11.936;2023-06-22T14:48:47;7.60;;;6.15;;
62475;SDS011;50739;45.670;11.936;2023-06-22T14:53:50;8.07;;;6.05;;
62475;SDS011;50739;45.670;11.936;2023-06-22T14:58:53;9.38;;;5.85;;
62475;SDS011;50739;45.670;11.936;2023-06-22T15:03:55;8.05;;;5.80;;
62475;SDS011;50739;45.670;11.936;2023-06-22T15:08:59;11.40;;;5.80;;
62475;SDS011;50739;45.670;11.936;2023-06-22T15:14:02;12.25;;;6.00;;
62475;SDS011;50739;45.670;11.936;2023-06-22T15:19:04;7.28;;;5.32;;
62475;SDS011;50739;45.670;11.936;2023-06-22T15:24:08;7.75;;;5.50;;
62475;SDS011;50739;45.670;11.936;2023-06-22T15:29:10;9.27;;;5.15;;
62475;SDS011;50739;45.670;11.936;2023-06-22T15:34:13;9.80;;;5.07;;
62475;SDS011;50739;45.670;11.936;2023-06-22T15:39:17;8.02;;;5.10;;
62475;SDS011;50739;45.670;11.936;2023-06-22T15:44:19;6.22;;;4.72;;
62475;SDS011;50739;45.670;11.936;2023-06-22T15:49:21;8.80;;;4.78;;
62475;SDS011;50739;45.670;11.936;2023-06-22T15:54:25;7.80;;;5.13;;
62475;SDS011;50739;45.670;11.936;2023-06-22T15:59:27;11.85;;;5.65;;
62475;SDS011;50739;45.670;11.936;2023-06-22T16:04:30;5.25;;;4.75;;
62475;SDS011;50739;45.670;11.936;2023-06-22T16:09:33;11.40;;;4.93;;
62475;SDS011;50739;45.670;11.936;2023-06-22T16:14:35;8.33;;;4.50;;
62475;SDS011;50739;45.670;11.936;2023-06-22T16:19:38;5.53;;;4.70;;
62475;SDS011;50739;45.670;11.936;2023-06-22T16:24:42;8.02;;;4.38;;
62475;SDS011;50739;45.670;11.936;2023-06-22T16:29:44;5.50;;;4.40;;
62475;SDS011;50739;45.670;11.936;2023-06-22T16:34:46;7.18;;;4.97;;
62475;SDS011;50739;45.670;11.936;2023-06-22T16:39:51;6.20;;;4.73;;
62475;SDS011;50739;45.670;11.936;2023-06-22T16:44:53;6.95;;;5.00;;
62475;SDS011;50739;45.670;11.936;2023-06-22T16:49:56;6.43;;;4.57;;
62475;SDS011;50739;45.670;11.936;2023-06-22T16:54:59;5.28;;;4.78;;
62475;SDS011;50739;45.670;11.936;2023-06-22T17:00:02;8.43;;;5.00;;
62475;SDS011;50739;45.670;11.936;2023-06-22T17:05:09;8.45;;;4.60;;
62475;SDS011;50739;45.670;11.936;2023-06-22T17:10:13;6.10;;;4.53;;
62475;SDS011;50739;45.670;11.936;2023-06-22T17:15:16;6.90;;;4.80;;
62475;SDS011;50739;45.670;11.936;2023-06-22T17:20:21;6.03;;;4.73;;
62475;SDS011;50739;45.670;11.936;2023-06-22T17:25:26;8.87;;;5.10;;
62475;SDS011;50739;45.670;11.936;2023-06-22T17:30:30;8.02;;;4.78;;
62475;SDS011;50739;45.670;11.936;2023-06-22T17:35:34;6.10;;;4.80;;
62475;SDS011;50739;45.670;11.936;2023-06-22T17:40:48;7.53;;;5.57;;
62475;SDS011;50739;45.670;11.936;2023-06-22T17:45:51;12.30;;;7.90;;
62475;SDS011;50739;45.670;11.936;2023-06-22T17:50:53;8.50;;;6.57;;
62475;SDS011;50739;45.670;11.936;2023-06-22T17:56:00;11.40;;;5.30;;
62475;SDS011;50739;45.670;11.936;2023-06-22T18:01:03;8.80;;;6.30;;
62475;SDS011;50739;45.670;11.936;2023-06-22T18:06:06;7.97;;;5.32;;
62475;SDS011;50739;45.670;11.936;2023-06-22T18:11:10;9.90;;;7.07;;
62475;SDS011;50739;45.670;11.936;2023-06-22T18:16:12;10.60;;;6.72;;
62475;SDS011;50739;45.670;11.936;2023-06-22T18:21:15;8.93;;;5.47;;
62475;SDS011;50739;45.670;11.936;2023-06-22T18:26:19;10.82;;;6.40;;
62475;SDS011;50739;45.670;11.936;2023-06-22T18:31:23;9.90;;;5.82;;
62475;SDS011;50739;45.670;11.936;2023-06-22T18:36:26;7.07;;;4.95;;
62475;SDS011;50739;45.670;11.936;2023-06-22T18:41:35;6.72;;;4.97;;
62475;SDS011;50739;45.670;11.936;2023-06-22T18:46:40;6.82;;;4.72;;
62475;SDS011;50739;45.670;11.936;2023-06-22T18:51:48;5.50;;;4.50;;
62475;SDS011;50739;45.670;11.936;2023-06-22T18:56:56;7.20;;;4.55;;
62475;SDS011;50739;45.670;11.936;2023-06-22T19:02:01;8.95;;;5.03;;
62475;SDS011;50739;45.670;11.936;2023-06-22T19:07:04;7.55;;;4.90;;
62475;SDS011;50739;45.670;11.936;2023-06-22T19:17:30;10.07;;;5.15;;
62475;SDS011;50739;45.670;11.936;2023-06-22T19:28:04;7.30;;;4.70;;
62475;SDS011;50739;45.670;11.936;2023-06-22T19:33:12;8.03;;;5.03;;
62475;SDS011;50739;45.670;11.936;2023-06-22T19:38:17;5.57;;;4.87;;
62475;SDS011;50739;45.670;11.936;2023-06-22T19:43:21;7.60;;;4.57;;
62475;SDS011;50739;45.670;11.936;2023-06-22T19:48:24;6.78;;;4.45;;
62475;SDS011;50739;45.670;11.936;2023-06-22T19:53:28;6.50;;;4.90;;
62475;SDS011;50739;45.670;11.936;2023-06-22T19:58:32;7.15;;;4.70;;
62475;SDS011;50739;45.670;11.936;2023-06-22T20:03:36;7.50;;;4.63;;
62475;SDS011;50739;45.670;11.936;2023-06-22T20:08:41;8.60;;;4.60;;
62475;SDS011;50739;45.670;11.936;2023-06-22T20:13:49;8.10;;;5.00;;
62475;SDS011;50739;45.670;11.936;2023-06-22T20:24:12;7.17;;;5.27;;
62475;SDS011;50739;45.670;11.936;2023-06-22T20:29:25;11.18;;;6.18;;
62475;SDS011;50739;45.670;11.936;2023-06-22T20:34:34;7.60;;;5.40;;
62475;SDS011;50739;45.670;11.936;2023-06-22T20:39:42;9.73;;;5.50;;
62475;SDS011;50739;45.670;11.936;2023-06-22T20:44:46;8.75;;;5.40;;
62475;SDS011;50739;45.670;11.936;2023-06-22T20:49:50;9.10;;;5.53;;
62475;SDS011;50739;45.670;11.936;2023-06-22T20:54:52;7.72;;;5.93;;
62475;SDS011;50739;45.670;11.936;2023-06-22T20:59:56;6.75;;;5.57;;
62475;SDS011;50739;45.670;11.936;2023-06-22T21:04:59;7.00;;;5.53;;
62475;SDS011;50739;45.670;11.936;2023-06-22T21:10:01;12.00;;;5.60;;
62475;SDS011;50739;45.670;11.936;2023-06-22T21:15:06;9.45;;;5.80;;
62475;SDS011;50739;45.670;11.936;2023-06-22T21:20:09;10.13;;;6.33;;
62475;SDS011;50739;45.670;11.936;2023-06-22T21:25:12;11.30;;;7.00;;
62475;SDS011;50739;45.670;11.936;2023-06-22T21:30:17;7.93;;;6.50;;
62475;SDS011;50739;45.670;11.936;2023-06-22T21:35:20;11.75;;;7.47;;
62475;SDS011;50739;45.670;11.936;2023-06-22T21:40:22;12.50;;;8.30;;
62475;SDS011;50739;45.670;11.936;2023-06-22T21:45:26;13.32;;;8.57;;
62475;SDS011;50739;45.670;11.936;2023-06-22T21:50:28;12.77;;;8.77;;
62475;SDS011;50739;45.670;11.936;2023-06-22T21:55:30;15.17;;;9.63;;
62475;SDS011;50739;45.670;11.936;2023-06-22T22:00:34;12.50;;;9.43;;
62475;SDS011;50739;45.670;11.936;2023-06-22T22:05:37;13.43;;;8.55;;
62475;SDS011;50739;45.670;11.936;2023-06-22T22:10:39;9.20;;;7.57;;
62475;SDS011;50739;45.670;11.936;2023-06-22T22:15:43;9.02;;;7.85;;
62475;SDS011;50739;45.670;11.936;2023-06-22T22:20:45;11.33;;;8.00;;
62475;SDS011;50739;45.670;11.936;2023-06-22T22:25:47;10.63;;;7.43;;
62475;SDS011;50739;45.670;11.936;2023-06-22T22:30:51;10.40;;;7.80;;
62475;SDS011;50739;45.670;11.936;2023-06-22T22:35:54;10.02;;;7.90;;
62475;SDS011;50739;45.670;11.936;2023-06-22T22:40:58;12.50;;;8.13;;
62475;SDS011;50739;45.670;11.936;2023-06-22T22:46:02;12.40;;;9.83;;
62475;SDS011;50739;45.670;11.936;2023-06-22T22:51:04;14.00;;;9.93;;
62475;SDS011;50739;45.670;11.936;2023-06-22T22:56:09;11.57;;;10.00;;
62475;SDS011;50739;45.670;11.936;2023-06-22T23:01:13;14.95;;;10.00;;
62475;SDS011;50739;45.670;11.936;2023-06-22T23:06:16;15.88;;;10.43;;
62475;SDS011;50739;45.670;11.936;2023-06-22T23:11:19;13.35;;;10.02;;
62475;SDS011;50739;45.670;11.936;2023-06-22T23:16:23;13.70;;;10.32;;
62475;SDS011;50739;45.670;11.936;2023-06-22T23:21:26;14.07;;;10.40;;
62475;SDS011;50739;45.670;11.936;2023-06-22T23:26:29;14.38;;;11.48;;
62475;SDS011;50739;45.670;11.936;2023-06-22T23:31:33;13.47;;;11.37;;
62475;SDS011;50739;45.670;11.936;2023-06-22T23:36:36;15.55;;;11.85;;
62475;SDS011;50739;45.670;11.936;2023-06-22T23:41:38;12.83;;;10.50;;
62475;SDS011;50739;45.670;11.936;2023-06-22T23:46:42;12.73;;;9.77;;
62475;SDS011;50739;45.670;11.936;2023-06-22T23:51:44;11.48;;;9.98;;
62475;SDS011;50739;45.670;11.936;2023-06-22T23:56:49;15.40;;;10.95;;
